This is the latest recevied weather packets stored in our database for station/object XE2RCS-1. If no packets are shown the sender has not sent any weather packets the latest 10 day(s).
| Time | Temp. | Humidity | Pressure | Rain* | Wind** | Luminosity | Snow |
|---|---|---|---|---|---|---|---|
| 1777921573 | 28.89° C | 28% | 1011 hPa | 0 mm | - | - | - |
| 1777920973 | 28.89° C | 29% | 1011 hPa | 0 mm | - | - | - |
| 1777920373 | 28.89° C | 28% | 1011 hPa | 0 mm | - | - | - |
| 1777919772 | 28.89° C | 27% | 1011 hPa | 0 mm | - | - | - |
| 1777919171 | 28.89° C | 26% | 1012 hPa | 0 mm | - | - | - |
| 1777918571 | 28.89° C | 26% | 1012 hPa | 0 mm | - | - | - |
| 1777917970 | 28.89° C | 27% | 1012 hPa | 0 mm | - | - | - |
| 1777917369 | 28.89° C | 27% | 1012 hPa | 0 mm | - | - | - |
| 1777916769 | 27.78° C | 26% | 1012 hPa | 0 mm | - | - | - |
| 1777916168 | 27.78° C | 26% | 1012 hPa | 0 mm | - | - | - |
| 1777915568 | 27.78° C | 26% | 1013 hPa | 0 mm | - | - | - |
| 1777914967 | 27.78° C | 27% | 1013 hPa | 0 mm | - | - | - |
| 1777914366 | 27.78° C | 28% | 1013 hPa | 0 mm | - | - | - |
| 1777913766 | 27.78° C | 27% | 1013 hPa | 0 mm | - | - | - |
| 1777913165 | 27.22° C | 30% | 1013 hPa | 0 mm | - | - | - |
| 1777912564 | 23.33° C | 33% | 1013 hPa | 0 mm | - | - | - |
| 1777911964 | 24.44° C | 33% | 1014 hPa | 0 mm | - | - | - |
| 1777911363 | 25.56° C | 33% | 1014 hPa | 0 mm | - | - | - |
| 1777910763 | 25° C | 35% | 1014 hPa | 0 mm | - | - | - |
| 1777910162 | 25° C | 35% | 1014 hPa | 0 mm | - | - | - |
| 1777909561 | 21.67° C | 41% | 1014 hPa | 0 mm | - | - | - |
| 1777908960 | 21.67° C | 41% | 1014 hPa | 0 mm | - | - | - |
| 1777908360 | 22.78° C | 41% | 1014 hPa | 0 mm | - | - | - |
| 1777907759 | 22.78° C | 41% | 1014 hPa | 0 mm | - | - | - |
| 1777907159 | 22.78° C | 41% | 1014 hPa | 0 mm | - | - | - |
* Rain latest hour (hover to see other rain measurements)
** Current wind speed in m/s (hover to see current wind gust speed)